sensor_id;sensor_type;location;lat;lon;timestamp;temperature;humidity
20911;DHT22;10615;42.702;23.314;2022-11-25T00:02:08;6.80;91.50
20911;DHT22;10615;42.702;23.314;2022-11-25T00:03:08;6.80;91.60
20911;DHT22;10615;42.702;23.314;2022-11-25T00:04:09;6.80;91.60
20911;DHT22;10615;42.702;23.314;2022-11-25T00:05:10;6.80;91.70
20911;DHT22;10615;42.702;23.314;2022-11-25T00:06:22;6.80;91.70
20911;DHT22;10615;42.702;23.314;2022-11-25T00:07:23;6.80;91.70
20911;DHT22;10615;42.702;23.314;2022-11-25T00:08:23;6.80;91.70
20911;DHT22;10615;42.702;23.314;2022-11-25T00:09:24;6.80;91.60
20911;DHT22;10615;42.702;23.314;2022-11-25T00:10:25;6.80;91.60
20911;DHT22;10615;42.702;23.314;2022-11-25T00:11:26;6.80;91.70
20911;DHT22;10615;42.702;23.314;2022-11-25T00:12:27;6.80;91.70
20911;DHT22;10615;42.702;23.314;2022-11-25T00:13:27;6.80;91.60
20911;DHT22;10615;42.702;23.314;2022-11-25T00:14:28;6.90;91.70
20911;DHT22;10615;42.702;23.314;2022-11-25T00:15:29;6.80;91.60
20911;DHT22;10615;42.702;23.314;2022-11-25T00:16:29;6.80;91.60
20911;DHT22;10615;42.702;23.314;2022-11-25T00:17:30;6.80;91.60
20911;DHT22;10615;42.702;23.314;2022-11-25T00:18:31;6.80;91.50
20911;DHT22;10615;42.702;23.314;2022-11-25T00:19:32;6.80;91.50
20911;DHT22;10615;42.702;23.314;2022-11-25T00:20:32;6.80;91.40
20911;DHT22;10615;42.702;23.314;2022-11-25T00:21:33;6.80;91.40
20911;DHT22;10615;42.702;23.314;2022-11-25T00:22:34;6.80;91.40
20911;DHT22;10615;42.702;23.314;2022-11-25T00:23:35;6.80;91.50
20911;DHT22;10615;42.702;23.314;2022-11-25T00:24:36;6.80;91.50
20911;DHT22;10615;42.702;23.314;2022-11-25T00:25:37;6.80;91.60
20911;DHT22;10615;42.702;23.314;2022-11-25T00:26:37;6.80;91.50
20911;DHT22;10615;42.702;23.314;2022-11-25T00:27:38;6.80;91.50
20911;DHT22;10615;42.702;23.314;2022-11-25T00:28:40;6.80;91.50
20911;DHT22;10615;42.702;23.314;2022-11-25T00:29:41;6.80;91.50
20911;DHT22;10615;42.702;23.314;2022-11-25T00:30:42;6.80;91.40
20911;DHT22;10615;42.702;23.314;2022-11-25T00:31:43;6.80;91.40
20911;DHT22;10615;42.702;23.314;2022-11-25T00:32:43;6.80;91.50
20911;DHT22;10615;42.702;23.314;2022-11-25T00:33:44;6.80;91.50
20911;DHT22;10615;42.702;23.314;2022-11-25T00:34:45;6.80;91.50
20911;DHT22;10615;42.702;23.314;2022-11-25T00:35:46;6.80;91.50
20911;DHT22;10615;42.702;23.314;2022-11-25T00:36:47;6.80;91.50
20911;DHT22;10615;42.702;23.314;2022-11-25T00:37:47;6.80;91.50
20911;DHT22;10615;42.702;23.314;2022-11-25T00:38:59;6.80;91.50
20911;DHT22;10615;42.702;23.314;2022-11-25T00:40:00;6.80;91.50
20911;DHT22;10615;42.702;23.314;2022-11-25T00:41:01;6.80;91.40
20911;DHT22;10615;42.702;23.314;2022-11-25T00:42:20;6.80;91.50
20911;DHT22;10615;42.702;23.314;2022-11-25T00:43:39;6.80;91.50
20911;DHT22;10615;42.702;23.314;2022-11-25T00:44:58;6.80;91.50
20911;DHT22;10615;42.702;23.314;2022-11-25T00:45:59;6.80;91.50
20911;DHT22;10615;42.702;23.314;2022-11-25T00:47:09;6.80;91.50
20911;DHT22;10615;42.702;23.314;2022-11-25T00:48:10;6.80;91.50
20911;DHT22;10615;42.702;23.314;2022-11-25T00:49:11;6.80;91.60
20911;DHT22;10615;42.702;23.314;2022-11-25T00:50:12;6.80;91.50
20911;DHT22;10615;42.702;23.314;2022-11-25T00:51:12;6.80;91.60
20911;DHT22;10615;42.702;23.314;2022-11-25T00:52:16;6.80;91.60
20911;DHT22;10615;42.702;23.314;2022-11-25T00:53:16;6.80;91.70
20911;DHT22;10615;42.702;23.314;2022-11-25T00:54:17;6.80;91.70
20911;DHT22;10615;42.702;23.314;2022-11-25T00:55:18;6.80;91.70
20911;DHT22;10615;42.702;23.314;2022-11-25T00:56:18;6.80;91.80
20911;DHT22;10615;42.702;23.314;2022-11-25T00:57:21;6.80;91.90
20911;DHT22;10615;42.702;23.314;2022-11-25T00:58:22;6.80;91.90
20911;DHT22;10615;42.702;23.314;2022-11-25T00:59:23;6.80;92.30
20911;DHT22;10615;42.702;23.314;2022-11-25T01:00:23;6.80;91.90
20911;DHT22;10615;42.702;23.314;2022-11-25T01:01:24;6.80;91.90
20911;DHT22;10615;42.702;23.314;2022-11-25T01:02:25;6.80;91.90
20911;DHT22;10615;42.702;23.314;2022-11-25T01:03:26;6.80;92.00
20911;DHT22;10615;42.702;23.314;2022-11-25T01:04:26;6.80;92.00
20911;DHT22;10615;42.702;23.314;2022-11-25T01:05:27;6.80;92.00
20911;DHT22;10615;42.702;23.314;2022-11-25T01:06:28;6.80;92.10
20911;DHT22;10615;42.702;23.314;2022-11-25T01:07:28;6.80;92.00
20911;DHT22;10615;42.702;23.314;2022-11-25T01:08:30;6.80;92.00
20911;DHT22;10615;42.702;23.314;2022-11-25T01:09:31;6.80;92.00
20911;DHT22;10615;42.702;23.314;2022-11-25T01:10:31;6.80;92.00
20911;DHT22;10615;42.702;23.314;2022-11-25T01:11:32;6.80;92.00
20911;DHT22;10615;42.702;23.314;2022-11-25T01:12:33;6.90;92.10
20911;DHT22;10615;42.702;23.314;2022-11-25T01:13:34;6.90;92.00
20911;DHT22;10615;42.702;23.314;2022-11-25T01:14:35;6.90;92.00
20911;DHT22;10615;42.702;23.314;2022-11-25T01:15:36;6.90;92.00
20911;DHT22;10615;42.702;23.314;2022-11-25T01:16:37;6.90;91.90
20911;DHT22;10615;42.702;23.314;2022-11-25T01:17:37;6.90;91.90
20911;DHT22;10615;42.702;23.314;2022-11-25T01:18:38;6.80;91.80
20911;DHT22;10615;42.702;23.314;2022-11-25T01:19:39;6.80;91.80
20911;DHT22;10615;42.702;23.314;2022-11-25T01:20:41;6.80;91.80
20911;DHT22;10615;42.702;23.314;2022-11-25T01:21:42;6.80;91.80
20911;DHT22;10615;42.702;23.314;2022-11-25T01:22:42;6.80;91.90
20911;DHT22;10615;42.702;23.314;2022-11-25T01:23:43;6.80;91.90
20911;DHT22;10615;42.702;23.314;2022-11-25T01:24:44;6.80;91.90
20911;DHT22;10615;42.702;23.314;2022-11-25T01:25:45;6.80;91.90
20911;DHT22;10615;42.702;23.314;2022-11-25T01:26:45;6.80;92.00
20911;DHT22;10615;42.702;23.314;2022-11-25T01:27:46;6.80;92.00
20911;DHT22;10615;42.702;23.314;2022-11-25T01:28:47;6.80;92.00
20911;DHT22;10615;42.702;23.314;2022-11-25T01:29:48;6.80;92.00
20911;DHT22;10615;42.702;23.314;2022-11-25T01:31:05;6.80;92.00
20911;DHT22;10615;42.702;23.314;2022-11-25T01:32:05;6.80;92.10
20911;DHT22;10615;42.702;23.314;2022-11-25T01:33:06;6.80;92.00
20911;DHT22;10615;42.702;23.314;2022-11-25T01:34:12;6.90;92.00
20911;DHT22;10615;42.702;23.314;2022-11-25T01:35:13;6.90;91.90
20911;DHT22;10615;42.702;23.314;2022-11-25T01:36:16;6.80;91.90
20911;DHT22;10615;42.702;23.314;2022-11-25T01:37:17;6.90;92.00
20911;DHT22;10615;42.702;23.314;2022-11-25T01:38:17;6.90;92.00
20911;DHT22;10615;42.702;23.314;2022-11-25T01:39:23;6.90;91.90
20911;DHT22;10615;42.702;23.314;2022-11-25T01:40:24;6.90;91.90
20911;DHT22;10615;42.702;23.314;2022-11-25T01:41:27;6.90;91.90
20911;DHT22;10615;42.702;23.314;2022-11-25T01:42:29;6.90;91.90
20911;DHT22;10615;42.702;23.314;2022-11-25T01:43:30;6.90;91.90
20911;DHT22;10615;42.702;23.314;2022-11-25T01:44:32;6.90;91.80
20911;DHT22;10615;42.702;23.314;2022-11-25T01:45:35;6.90;91.80
20911;DHT22;10615;42.702;23.314;2022-11-25T01:48:17;6.90;91.80
20911;DHT22;10615;42.702;23.314;2022-11-25T01:50:27;6.90;91.60
20911;DHT22;10615;42.702;23.314;2022-11-25T01:51:41;6.90;91.50
20911;DHT22;10615;42.702;23.314;2022-11-25T01:52:45;6.90;91.50
20911;DHT22;10615;42.702;23.314;2022-11-25T01:53:47;6.90;91.50
20911;DHT22;10615;42.702;23.314;2022-11-25T01:55:58;6.90;91.40
20911;DHT22;10615;42.702;23.314;2022-11-25T01:57:07;6.90;91.80
20911;DHT22;10615;42.702;23.314;2022-11-25T01:58:12;6.90;91.30
20911;DHT22;10615;42.702;23.314;2022-11-25T01:59:14;6.90;91.20
20911;DHT22;10615;42.702;23.314;2022-11-25T02:00:15;6.90;91.20
20911;DHT22;10615;42.702;23.314;2022-11-25T02:01:16;6.90;91.20
20911;DHT22;10615;42.702;23.314;2022-11-25T02:02:18;6.90;91.20
20911;DHT22;10615;42.702;23.314;2022-11-25T02:03:34;6.90;91.20
20911;DHT22;10615;42.702;23.314;2022-11-25T02:04:38;6.90;91.10
20911;DHT22;10615;42.702;23.314;2022-11-25T02:06:03;6.90;91.00
20911;DHT22;10615;42.702;23.314;2022-11-25T02:07:18;6.90;91.00
20911;DHT22;10615;42.702;23.314;2022-11-25T02:08:22;7.00;91.00
20911;DHT22;10615;42.702;23.314;2022-11-25T02:09:23;7.00;90.90
20911;DHT22;10615;42.702;23.314;2022-11-25T02:10:28;7.00;90.80
20911;DHT22;10615;42.702;23.314;2022-11-25T02:11:31;7.00;90.80
20911;DHT22;10615;42.702;23.314;2022-11-25T02:12:34;7.00;90.70
20911;DHT22;10615;42.702;23.314;2022-11-25T02:13:36;7.00;90.70
20911;DHT22;10615;42.702;23.314;2022-11-25T02:14:38;6.90;90.60
20911;DHT22;10615;42.702;23.314;2022-11-25T02:15:39;6.90;90.60
20911;DHT22;10615;42.702;23.314;2022-11-25T02:16:40;6.90;90.60
20911;DHT22;10615;42.702;23.314;2022-11-25T02:17:42;7.00;90.60
20911;DHT22;10615;42.702;23.314;2022-11-25T02:18:43;6.90;90.50
20911;DHT22;10615;42.702;23.314;2022-11-25T02:20:09;6.90;90.50
20911;DHT22;10615;42.702;23.314;2022-11-25T02:21:10;6.90;90.50
20911;DHT22;10615;42.702;23.314;2022-11-25T02:22:17;6.90;90.50
20911;DHT22;10615;42.702;23.314;2022-11-25T02:24:54;6.90;90.40
20911;DHT22;10615;42.702;23.314;2022-11-25T02:25:56;6.90;90.40
20911;DHT22;10615;42.702;23.314;2022-11-25T02:26:57;6.90;90.40
20911;DHT22;10615;42.702;23.314;2022-11-25T02:28:02;6.90;90.30
20911;DHT22;10615;42.702;23.314;2022-11-25T02:29:02;6.90;90.30
20911;DHT22;10615;42.702;23.314;2022-11-25T02:30:04;6.90;90.30
20911;DHT22;10615;42.702;23.314;2022-11-25T02:31:06;6.90;90.40
20911;DHT22;10615;42.702;23.314;2022-11-25T02:32:07;6.90;90.40
20911;DHT22;10615;42.702;23.314;2022-11-25T02:33:08;7.00;90.30
20911;DHT22;10615;42.702;23.314;2022-11-25T02:34:09;6.90;90.20
20911;DHT22;10615;42.702;23.314;2022-11-25T02:35:36;6.90;90.20
20911;DHT22;10615;42.702;23.314;2022-11-25T02:36:37;6.90;90.20
20911;DHT22;10615;42.702;23.314;2022-11-25T02:37:37;6.90;90.10
20911;DHT22;10615;42.702;23.314;2022-11-25T02:38:46;6.90;90.10
20911;DHT22;10615;42.702;23.314;2022-11-25T02:39:47;6.90;90.00
20911;DHT22;10615;42.702;23.314;2022-11-25T02:40:51;6.90;90.00
20911;DHT22;10615;42.702;23.314;2022-11-25T02:41:56;6.90;90.10
20911;DHT22;10615;42.702;23.314;2022-11-25T02:42:59;6.80;90.00
20911;DHT22;10615;42.702;23.314;2022-11-25T02:44:00;6.80;90.00
20911;DHT22;10615;42.702;23.314;2022-11-25T02:45:02;6.80;90.00
20911;DHT22;10615;42.702;23.314;2022-11-25T02:46:10;6.80;90.00
20911;DHT22;10615;42.702;23.314;2022-11-25T02:47:11;6.80;90.00
20911;DHT22;10615;42.702;23.314;2022-11-25T02:48:12;6.80;90.00
20911;DHT22;10615;42.702;23.314;2022-11-25T02:49:12;6.80;90.00
20911;DHT22;10615;42.702;23.314;2022-11-25T02:50:14;6.80;89.80
20911;DHT22;10615;42.702;23.314;2022-11-25T02:51:17;6.80;89.70
20911;DHT22;10615;42.702;23.314;2022-11-25T02:52:18;6.80;89.70
20911;DHT22;10615;42.702;23.314;2022-11-25T02:53:19;6.80;89.50
20911;DHT22;10615;42.702;23.314;2022-11-25T02:54:19;6.80;89.40
20911;DHT22;10615;42.702;23.314;2022-11-25T02:55:20;6.80;89.50
20911;DHT22;10615;42.702;23.314;2022-11-25T02:56:23;6.80;89.60
20911;DHT22;10615;42.702;23.314;2022-11-25T02:57:23;6.80;89.40
20911;DHT22;10615;42.702;23.314;2022-11-25T02:58:24;6.80;89.50
20911;DHT22;10615;42.702;23.314;2022-11-25T02:59:25;6.80;89.60
20911;DHT22;10615;42.702;23.314;2022-11-25T03:00:25;6.80;89.60
20911;DHT22;10615;42.702;23.314;2022-11-25T03:01:27;6.80;89.70
20911;DHT22;10615;42.702;23.314;2022-11-25T03:02:29;6.80;89.70
20911;DHT22;10615;42.702;23.314;2022-11-25T03:03:29;6.80;89.70
20911;DHT22;10615;42.702;23.314;2022-11-25T03:04:30;6.80;89.80
20911;DHT22;10615;42.702;23.314;2022-11-25T03:05:31;6.80;89.90
20911;DHT22;10615;42.702;23.314;2022-11-25T03:06:32;6.70;89.90
20911;DHT22;10615;42.702;23.314;2022-11-25T03:07:32;6.70;90.00
20911;DHT22;10615;42.702;23.314;2022-11-25T03:08:34;6.80;90.00
20911;DHT22;10615;42.702;23.314;2022-11-25T03:09:35;6.70;90.00
20911;DHT22;10615;42.702;23.314;2022-11-25T03:10:37;6.70;90.10
20911;DHT22;10615;42.702;23.314;2022-11-25T03:11:38;6.80;90.10
20911;DHT22;10615;42.702;23.314;2022-11-25T03:12:57;6.80;90.20
20911;DHT22;10615;42.702;23.314;2022-11-25T03:13:58;6.70;90.20
20911;DHT22;10615;42.702;23.314;2022-11-25T03:14:58;6.70;90.30
20911;DHT22;10615;42.702;23.314;2022-11-25T03:15:59;6.70;90.30
20911;DHT22;10615;42.702;23.314;2022-11-25T03:16:59;6.70;90.40
20911;DHT22;10615;42.702;23.314;2022-11-25T03:18:01;6.70;90.40
20911;DHT22;10615;42.702;23.314;2022-11-25T03:19:02;6.70;90.50
20911;DHT22;10615;42.702;23.314;2022-11-25T03:20:05;6.70;90.50
20911;DHT22;10615;42.702;23.314;2022-11-25T03:21:06;6.70;90.60
20911;DHT22;10615;42.702;23.314;2022-11-25T03:22:06;6.60;91.00
20911;DHT22;10615;42.702;23.314;2022-11-25T03:23:07;6.70;90.70
20911;DHT22;10615;42.702;23.314;2022-11-25T03:24:08;6.60;90.70
20911;DHT22;10615;42.702;23.314;2022-11-25T03:25:10;6.70;90.80
20911;DHT22;10615;42.702;23.314;2022-11-25T03:26:11;6.60;90.80
20911;DHT22;10615;42.702;23.314;2022-11-25T03:27:11;6.60;90.90
20911;DHT22;10615;42.702;23.314;2022-11-25T03:28:12;6.60;91.00
20911;DHT22;10615;42.702;23.314;2022-11-25T03:29:13;6.60;91.00
20911;DHT22;10615;42.702;23.314;2022-11-25T03:30:16;6.60;91.10
20911;DHT22;10615;42.702;23.314;2022-11-25T03:31:18;6.60;91.10
20911;DHT22;10615;42.702;23.314;2022-11-25T03:32:19;6.60;91.30
20911;DHT22;10615;42.702;23.314;2022-11-25T03:33:19;6.60;91.30
20911;DHT22;10615;42.702;23.314;2022-11-25T03:34:20;6.50;91.30
20911;DHT22;10615;42.702;23.314;2022-11-25T03:35:21;6.60;91.50
20911;DHT22;10615;42.702;23.314;2022-11-25T03:36:23;6.50;91.50
20911;DHT22;10615;42.702;23.314;2022-11-25T03:37:23;6.50;91.60
20911;DHT22;10615;42.702;23.314;2022-11-25T03:38:24;6.50;91.60
20911;DHT22;10615;42.702;23.314;2022-11-25T03:39:25;6.50;91.70
20911;DHT22;10615;42.702;23.314;2022-11-25T03:40:25;6.50;91.70
20911;DHT22;10615;42.702;23.314;2022-11-25T03:41:26;6.50;91.80
20911;DHT22;10615;42.702;23.314;2022-11-25T03:42:27;6.50;91.90
20911;DHT22;10615;42.702;23.314;2022-11-25T03:43:27;6.50;92.00
20911;DHT22;10615;42.702;23.314;2022-11-25T03:44:28;6.50;92.10
20911;DHT22;10615;42.702;23.314;2022-11-25T03:45:28;6.40;92.10
20911;DHT22;10615;42.702;23.314;2022-11-25T03:46:29;6.40;92.20
20911;DHT22;10615;42.702;23.314;2022-11-25T03:47:48;6.40;92.30
20911;DHT22;10615;42.702;23.314;2022-11-25T03:48:49;6.40;92.40
20911;DHT22;10615;42.702;23.314;2022-11-25T03:49:49;6.40;92.50
20911;DHT22;10615;42.702;23.314;2022-11-25T03:50:50;6.40;92.60
20911;DHT22;10615;42.702;23.314;2022-11-25T03:51:51;6.30;92.70
20911;DHT22;10615;42.702;23.314;2022-11-25T03:52:51;6.30;92.80
20911;DHT22;10615;42.702;23.314;2022-11-25T03:53:52;6.30;92.90
20911;DHT22;10615;42.702;23.314;2022-11-25T03:54:53;6.30;93.00
20911;DHT22;10615;42.702;23.314;2022-11-25T03:55:53;6.30;93.10
20911;DHT22;10615;42.702;23.314;2022-11-25T03:56:54;6.30;93.20
20911;DHT22;10615;42.702;23.314;2022-11-25T03:57:54;6.20;93.30
20911;DHT22;10615;42.702;23.314;2022-11-25T03:58:55;6.20;93.40
20911;DHT22;10615;42.702;23.314;2022-11-25T03:59:56;6.20;93.50
20911;DHT22;10615;42.702;23.314;2022-11-25T04:01:00;6.20;93.50
20911;DHT22;10615;42.702;23.314;2022-11-25T04:02:01;6.20;93.70
20911;DHT22;10615;42.702;23.314;2022-11-25T04:03:02;6.20;93.80
20911;DHT22;10615;42.702;23.314;2022-11-25T04:04:03;6.10;94.00
20911;DHT22;10615;42.702;23.314;2022-11-25T04:05:04;6.10;94.10
20911;DHT22;10615;42.702;23.314;2022-11-25T04:06:05;6.10;94.20
20911;DHT22;10615;42.702;23.314;2022-11-25T04:07:06;6.10;94.40
20911;DHT22;10615;42.702;23.314;2022-11-25T04:08:06;6.10;94.50
20911;DHT22;10615;42.702;23.314;2022-11-25T04:09:07;6.00;94.60
20911;DHT22;10615;42.702;23.314;2022-11-25T04:10:08;6.00;94.70
20911;DHT22;10615;42.702;23.314;2022-11-25T04:11:09;6.00;94.90
20911;DHT22;10615;42.702;23.314;2022-11-25T04:12:10;6.00;95.00
20911;DHT22;10615;42.702;23.314;2022-11-25T04:13:29;6.00;95.10
20911;DHT22;10615;42.702;23.314;2022-11-25T04:14:30;5.90;95.30
20911;DHT22;10615;42.702;23.314;2022-11-25T04:15:31;6.00;95.40
20911;DHT22;10615;42.702;23.314;2022-11-25T04:16:31;5.90;95.60
20911;DHT22;10615;42.702;23.314;2022-11-25T04:17:32;5.90;95.70
20911;DHT22;10615;42.702;23.314;2022-11-25T04:18:33;5.90;95.90
20911;DHT22;10615;42.702;23.314;2022-11-25T04:19:33;5.90;96.00
20911;DHT22;10615;42.702;23.314;2022-11-25T04:20:34;5.90;96.10
20911;DHT22;10615;42.702;23.314;2022-11-25T04:21:34;5.90;96.20
20911;DHT22;10615;42.702;23.314;2022-11-25T04:22:35;5.90;96.30
20911;DHT22;10615;42.702;23.314;2022-11-25T04:23:36;5.90;96.40
20911;DHT22;10615;42.702;23.314;2022-11-25T04:24:36;5.90;96.50
20911;DHT22;10615;42.702;23.314;2022-11-25T04:25:37;5.90;96.50
20911;DHT22;10615;42.702;23.314;2022-11-25T04:26:38;5.90;96.60
20911;DHT22;10615;42.702;23.314;2022-11-25T04:27:39;5.90;96.60
20911;DHT22;10615;42.702;23.314;2022-11-25T04:28:39;5.80;96.70
20911;DHT22;10615;42.702;23.314;2022-11-25T04:29:40;5.90;96.80
20911;DHT22;10615;42.702;23.314;2022-11-25T04:30:41;5.80;96.80
20911;DHT22;10615;42.702;23.314;2022-11-25T04:31:42;5.80;96.80
20911;DHT22;10615;42.702;23.314;2022-11-25T04:32:42;5.80;96.90
20911;DHT22;10615;42.702;23.314;2022-11-25T04:33:43;5.80;97.00
20911;DHT22;10615;42.702;23.314;2022-11-25T04:34:44;5.80;97.10
20911;DHT22;10615;42.702;23.314;2022-11-25T04:35:44;5.80;97.20
20911;DHT22;10615;42.702;23.314;2022-11-25T04:36:46;5.80;97.30
20911;DHT22;10615;42.702;23.314;2022-11-25T04:37:46;5.80;97.30
20911;DHT22;10615;42.702;23.314;2022-11-25T04:38:47;5.80;97.40
20911;DHT22;10615;42.702;23.314;2022-11-25T04:39:48;5.80;97.50
20911;DHT22;10615;42.702;23.314;2022-11-25T04:40:48;5.80;97.60
20911;DHT22;10615;42.702;23.314;2022-11-25T04:41:49;5.80;97.60
20911;DHT22;10615;42.702;23.314;2022-11-25T04:43:10;5.80;97.70
20911;DHT22;10615;42.702;23.314;2022-11-25T04:44:10;5.80;97.70
20911;DHT22;10615;42.702;23.314;2022-11-25T04:45:14;5.80;97.80
20911;DHT22;10615;42.702;23.314;2022-11-25T04:46:22;5.80;97.80
20911;DHT22;10615;42.702;23.314;2022-11-25T04:47:24;5.80;97.80
20911;DHT22;10615;42.702;23.314;2022-11-25T04:48:25;5.80;98.00
20911;DHT22;10615;42.702;23.314;2022-11-25T04:49:25;5.80;98.10
20911;DHT22;10615;42.702;23.314;2022-11-25T04:50:26;5.80;98.20
20911;DHT22;10615;42.702;23.314;2022-11-25T04:51:27;5.80;98.20
20911;DHT22;10615;42.702;23.314;2022-11-25T04:52:27;5.80;98.20
20911;DHT22;10615;42.702;23.314;2022-11-25T04:53:28;5.80;98.30
20911;DHT22;10615;42.702;23.314;2022-11-25T04:54:29;5.80;98.40
20911;DHT22;10615;42.702;23.314;2022-11-25T04:55:29;5.80;98.40
20911;DHT22;10615;42.702;23.314;2022-11-25T04:56:30;5.80;98.40
20911;DHT22;10615;42.702;23.314;2022-11-25T04:57:31;5.80;98.60
20911;DHT22;10615;42.702;23.314;2022-11-25T04:58:31;5.80;98.60
20911;DHT22;10615;42.702;23.314;2022-11-25T04:59:51;5.80;99.00
20911;DHT22;10615;42.702;23.314;2022-11-25T05:00:51;5.80;98.60
20911;DHT22;10615;42.702;23.314;2022-11-25T05:01:52;5.70;98.60
20911;DHT22;10615;42.702;23.314;2022-11-25T05:02:52;5.70;98.70
20911;DHT22;10615;42.702;23.314;2022-11-25T05:03:53;5.80;98.70
20911;DHT22;10615;42.702;23.314;2022-11-25T05:04:55;5.80;98.60
20911;DHT22;10615;42.702;23.314;2022-11-25T05:05:56;5.80;98.60
20911;DHT22;10615;42.702;23.314;2022-11-25T05:06:57;5.80;98.60
20911;DHT22;10615;42.702;23.314;2022-11-25T05:07:57;5.80;98.50
20911;DHT22;10615;42.702;23.314;2022-11-25T05:08:58;5.80;98.40
20911;DHT22;10615;42.702;23.314;2022-11-25T05:09:59;5.80;98.40
20911;DHT22;10615;42.702;23.314;2022-11-25T05:10:59;5.80;98.30
20911;DHT22;10615;42.702;23.314;2022-11-25T05:12:00;5.80;98.30
20911;DHT22;10615;42.702;23.314;2022-11-25T05:13:01;5.80;98.40
20911;DHT22;10615;42.702;23.314;2022-11-25T05:14:01;5.80;98.40
20911;DHT22;10615;42.702;23.314;2022-11-25T05:15:02;5.80;98.30
20911;DHT22;10615;42.702;23.314;2022-11-25T05:16:05;5.80;98.30
20911;DHT22;10615;42.702;23.314;2022-11-25T05:17:06;5.80;98.40
20911;DHT22;10615;42.702;23.314;2022-11-25T05:18:07;5.80;98.30
20911;DHT22;10615;42.702;23.314;2022-11-25T05:19:07;5.80;98.30
20911;DHT22;10615;42.702;23.314;2022-11-25T05:20:09;5.80;98.20
20911;DHT22;10615;42.702;23.314;2022-11-25T05:21:10;5.80;98.10
20911;DHT22;10615;42.702;23.314;2022-11-25T05:22:12;5.80;98.10
20911;DHT22;10615;42.702;23.314;2022-11-25T05:23:13;5.80;98.10
20911;DHT22;10615;42.702;23.314;2022-11-25T05:24:14;5.80;98.10
20911;DHT22;10615;42.702;23.314;2022-11-25T05:25:15;5.90;98.10
20911;DHT22;10615;42.702;23.314;2022-11-25T05:26:16;5.90;97.90
20911;DHT22;10615;42.702;23.314;2022-11-25T05:27:17;5.90;97.90
20911;DHT22;10615;42.702;23.314;2022-11-25T05:28:18;5.90;97.80
20911;DHT22;10615;42.702;23.314;2022-11-25T05:29:18;5.90;97.70
20911;DHT22;10615;42.702;23.314;2022-11-25T05:30:19;5.90;97.60
20911;DHT22;10615;42.702;23.314;2022-11-25T05:31:20;5.90;97.40
20911;DHT22;10615;42.702;23.314;2022-11-25T05:32:20;5.90;97.30
20911;DHT22;10615;42.702;23.314;2022-11-25T05:33:21;5.90;97.40
20911;DHT22;10615;42.702;23.314;2022-11-25T05:34:22;6.00;97.30
20911;DHT22;10615;42.702;23.314;2022-11-25T05:35:22;6.00;97.10
20911;DHT22;10615;42.702;23.314;2022-11-25T05:36:23;6.00;96.90
20911;DHT22;10615;42.702;23.314;2022-11-25T05:37:24;6.00;96.80
20911;DHT22;10615;42.702;23.314;2022-11-25T05:38:25;6.10;96.70
20911;DHT22;10615;42.702;23.314;2022-11-25T05:39:26;6.10;96.60
20911;DHT22;10615;42.702;23.314;2022-11-25T05:40:26;6.10;96.40
20911;DHT22;10615;42.702;23.314;2022-11-25T05:41:27;6.10;96.20
20911;DHT22;10615;42.702;23.314;2022-11-25T05:42:28;6.20;96.10
20911;DHT22;10615;42.702;23.314;2022-11-25T05:43:29;6.20;95.90
20911;DHT22;10615;42.702;23.314;2022-11-25T05:44:30;6.30;95.70
20911;DHT22;10615;42.702;23.314;2022-11-25T05:45:31;6.30;95.70
20911;DHT22;10615;42.702;23.314;2022-11-25T05:46:32;6.30;95.60
20911;DHT22;10615;42.702;23.314;2022-11-25T05:47:32;6.40;95.40
20911;DHT22;10615;42.702;23.314;2022-11-25T05:48:33;6.40;95.20
20911;DHT22;10615;42.702;23.314;2022-11-25T05:49:34;6.40;95.10
20911;DHT22;10615;42.702;23.314;2022-11-25T05:50:36;6.50;94.90
20911;DHT22;10615;42.702;23.314;2022-11-25T05:51:37;6.50;94.70
20911;DHT22;10615;42.702;23.314;2022-11-25T05:52:38;6.50;94.60
20911;DHT22;10615;42.702;23.314;2022-11-25T05:53:38;6.50;94.50
20911;DHT22;10615;42.702;23.314;2022-11-25T05:54:39;6.60;94.40
20911;DHT22;10615;42.702;23.314;2022-11-25T05:55:39;6.60;94.30
20911;DHT22;10615;42.702;23.314;2022-11-25T05:56:40;6.70;94.20
20911;DHT22;10615;42.702;23.314;2022-11-25T05:57:41;6.90;94.00
20911;DHT22;10615;42.702;23.314;2022-11-25T05:58:42;7.20;93.70
20911;DHT22;10615;42.702;23.314;2022-11-25T05:59:42;7.50;93.30
20911;DHT22;10615;42.702;23.314;2022-11-25T06:00:43;7.70;92.50
20911;DHT22;10615;42.702;23.314;2022-11-25T06:01:44;7.90;91.80
20911;DHT22;10615;42.702;23.314;2022-11-25T06:02:48;7.90;91.20
20911;DHT22;10615;42.702;23.314;2022-11-25T06:03:49;7.90;90.80
20911;DHT22;10615;42.702;23.314;2022-11-25T06:04:50;7.90;90.40
20911;DHT22;10615;42.702;23.314;2022-11-25T06:05:51;7.80;90.00
20911;DHT22;10615;42.702;23.314;2022-11-25T06:06:52;7.90;90.10
20911;DHT22;10615;42.702;23.314;2022-11-25T06:07:52;8.10;90.20
20911;DHT22;10615;42.702;23.314;2022-11-25T06:08:54;8.30;89.70
20911;DHT22;10615;42.702;23.314;2022-11-25T06:09:54;8.60;89.10
20911;DHT22;10615;42.702;23.314;2022-11-25T06:10:55;8.90;87.70
20911;DHT22;10615;42.702;23.314;2022-11-25T06:11:56;9.20;86.30
20911;DHT22;10615;42.702;23.314;2022-11-25T06:12:56;9.70;85.20
20911;DHT22;10615;42.702;23.314;2022-11-25T06:13:57;10.10;83.80
20911;DHT22;10615;42.702;23.314;2022-11-25T06:14:58;10.50;81.70
20911;DHT22;10615;42.702;23.314;2022-11-25T06:16:02;11.00;79.80
20911;DHT22;10615;42.702;23.314;2022-11-25T06:17:05;11.10;77.70
20911;DHT22;10615;42.702;23.314;2022-11-25T06:18:06;11.00;75.80
20911;DHT22;10615;42.702;23.314;2022-11-25T06:19:06;10.90;74.90
20911;DHT22;10615;42.702;23.314;2022-11-25T06:20:07;10.60;74.30
20911;DHT22;10615;42.702;23.314;2022-11-25T06:21:09;10.40;74.40
20911;DHT22;10615;42.702;23.314;2022-11-25T06:22:10;10.20;74.70
20911;DHT22;10615;42.702;23.314;2022-11-25T06:23:11;10.10;75.00
20911;DHT22;10615;42.702;23.314;2022-11-25T06:24:12;9.90;75.40
20911;DHT22;10615;42.702;23.314;2022-11-25T06:25:12;9.70;75.80
20911;DHT22;10615;42.702;23.314;2022-11-25T06:26:16;9.50;76.10
20911;DHT22;10615;42.702;23.314;2022-11-25T06:27:17;9.40;76.80
20911;DHT22;10615;42.702;23.314;2022-11-25T06:28:18;9.20;77.50
20911;DHT22;10615;42.702;23.314;2022-11-25T06:29:19;9.20;77.90
20911;DHT22;10615;42.702;23.314;2022-11-25T06:30:20;9.10;78.40
20911;DHT22;10615;42.702;23.314;2022-11-25T06:31:24;9.00;78.80
20911;DHT22;10615;42.702;23.314;2022-11-25T06:32:25;8.90;79.10
20911;DHT22;10615;42.702;23.314;2022-11-25T06:33:25;8.70;79.40
20911;DHT22;10615;42.702;23.314;2022-11-25T06:34:26;8.60;79.70
20911;DHT22;10615;42.702;23.314;2022-11-25T06:35:27;8.50;80.20
20911;DHT22;10615;42.702;23.314;2022-11-25T06:36:27;8.50;80.60
20911;DHT22;10615;42.702;23.314;2022-11-25T06:37:28;8.40;80.80
20911;DHT22;10615;42.702;23.314;2022-11-25T06:38:29;8.40;81.10